PWSweather.com
Personal Weather Stations
Station Observations
STEFBZH56
PontScorff, PontScorffFR

PontScorffPontScorffFR

Lat: 47.831518, Lon: -3.4222200000000385

Elevation: 141

Station Type: Oregon WMR200

http://www.meteo-pontscorff.fr

High Low Average
Temperature 70.6°F21.4°C 58.3°F14.6°C 63.3°F17.4°C
Dew Point 64.1°F17.8°C 56.6°F13.7°C 60.4°F15.8°C
Winds 11.2 mph 18.0 kmh 2.3 mph 3.7 kmh 6.0 mph WSW9.7 kmh WSW
Wind Gusts 26.6 mph42.8 kmh 3.6 mph5.8 kmh 11.0 mph17.7 kmh
Humidity 98% 74% 91%
Pressure 29.80 in1009.1 mb 29.62 in1003.0 mb -
Precipitation 0.57 in14.5 mm - -
Hour Temp Dew Point Humidity Winds Wind Gusts Pressure Precip Precip Rate Daily Precip Total
12:00 AM 62.2°F16.8°C 61.7°F16.5°C 98% 4.3 mph SSW6.9 kmh SSW 8.9 mph14.3 kmh 29.77 in1008.1 mb 0.03 in0.8 mm 0.00 in0.0 mm 0.03 in0.8 mm
12:05 AM 62.2°F16.8°C 61.7°F16.5°C 98% 4.0 mph SSW6.4 kmh SSW 6.9 mph11.1 kmh 29.79 in1008.8 mb 0.03 in0.8 mm 0.00 in0.0 mm 0.03 in0.8 mm
12:10 AM 62.2°F16.8°C 61.7°F16.5°C 98% 2.3 mph W3.7 kmh W 3.6 mph5.8 kmh 29.80 in1009.1 mb 0.03 in0.8 mm 0.00 in0.0 mm 0.03 in0.8 mm
12:15 AM 62.2°F16.8°C 61.7°F16.5°C 98% 2.9 mph SW4.7 kmh SW 6.3 mph10.1 kmh 29.80 in1009.1 mb 0.03 in0.8 mm 0.00 in0.0 mm 0.03 in0.8 mm
12:20 AM 62.2°F16.8°C 61.7°F16.5°C 98% 2.9 mph S4.7 kmh S 6.5 mph10.5 kmh 29.76 in1007.8 mb 0.00 in0.0 mm 0.00 in0.0 mm 0.03 in0.8 mm
12:25 AM 62.2°F16.8°C 61.7°F16.5°C 98% 3.8 mph SSW6.1 kmh SSW 8.7 mph14.0 kmh 29.74 in1007.1 mb 0.00 in0.0 mm 0.00 in0.0 mm 0.03 in0.8 mm
12:30 AM 62.2°F16.8°C 61.7°F16.5°C 98% 3.0 mph SSW4.8 kmh SSW 5.1 mph8.2 kmh 29.74 in1007.1 mb 0.00 in0.0 mm 0.00 in0.0 mm 0.03 in0.8 mm
12:35 AM 62.2°F16.8°C 61.7°F16.5°C 98% 3.5 mph WSW5.6 kmh WSW 8.5 mph13.7 kmh 29.74 in1007.1 mb 0.00 in0.0 mm 0.00 in0.0 mm 0.03 in0.8 mm
12:40 AM 62.2°F16.8°C 61.7°F16.5°C 98% 3.4 mph SSW5.5 kmh SSW 6.9 mph11.1 kmh 29.74 in1007.1 mb 0.00 in0.0 mm 0.00 in0.0 mm 0.03 in0.8 mm
12:45 AM 62.3°F16.8°C 61.7°F16.5°C 98% 4.3 mph S6.9 kmh S 8.1 mph13.0 kmh 29.74 in1007.1 mb 0.00 in0.0 mm 0.00 in0.0 mm 0.03 in0.8 mm
12:50 AM 62.4°F16.9°C 61.8°F16.6°C 98% 5.3 mph S8.5 kmh S 10.3 mph16.6 kmh 29.74 in1007.1 mb 0.00 in0.0 mm 0.00 in0.0 mm 0.03 in0.8 mm
12:55 AM 62.4°F16.9°C 61.8°F16.6°C 98% 4.9 mph SW7.9 kmh SW 8.7 mph14.0 kmh 29.74 in1007.1 mb 0.00 in0.0 mm 0.00 in0.0 mm 0.03 in0.8 mm
01:00 AM 62.6°F17.0°C 62.0°F16.7°C 98% 5.0 mph SSW8.0 kmh SSW 7.8 mph12.6 kmh 29.74 in1007.1 mb 0.00 in0.0 mm 0.00 in0.0 mm 0.03 in0.8 mm
01:05 AM 62.6°F17.0°C 62.0°F16.7°C 98% 5.0 mph SSW8.0 kmh SSW 9.8 mph15.8 kmh 29.74 in1007.1 mb 0.05 in1.3 mm 0.60 in15.2 mm 0.08 in2.0 mm
01:10 AM 62.6°F17.0°C 62.0°F16.7°C 98% 4.8 mph SW7.7 kmh SW 9.4 mph15.1 kmh 29.74 in1007.1 mb 0.05 in1.3 mm 0.00 in0.0 mm 0.08 in2.0 mm
01:15 AM 62.6°F17.0°C 62.0°F16.7°C 98% 4.4 mph SW7.1 kmh SW 12.8 mph20.6 kmh 29.74 in1007.1 mb 0.05 in1.3 mm 0.00 in0.0 mm 0.08 in2.0 mm
01:20 AM 62.6°F17.0°C 62.0°F16.7°C 98% 5.2 mph S8.4 kmh S 10.1 mph16.3 kmh 29.74 in1007.1 mb 0.00 in0.0 mm 0.00 in0.0 mm 0.08 in2.0 mm
01:25 AM 62.6°F17.0°C 62.0°F16.7°C 98% 5.5 mph SW8.9 kmh SW 9.8 mph15.8 kmh 29.74 in1007.1 mb 0.00 in0.0 mm 0.00 in0.0 mm 0.08 in2.0 mm
01:30 AM 62.6°F17.0°C 62.0°F16.7°C 98% 4.0 mph S6.4 kmh S 10.3 mph16.6 kmh 29.74 in1007.1 mb 0.00 in0.0 mm 0.00 in0.0 mm 0.08 in2.0 mm
01:35 AM 62.6°F17.0°C 62.0°F16.7°C 98% 4.3 mph S6.9 kmh S 8.3 mph13.4 kmh 29.74 in1007.1 mb 0.00 in0.0 mm 0.00 in0.0 mm 0.08 in2.0 mm
01:40 AM 62.6°F17.0°C 62.0°F16.7°C 98% 5.3 mph S8.5 kmh S 13.0 mph20.9 kmh 29.74 in1007.1 mb 0.03 in0.8 mm 0.36 in9.1 mm 0.11 in2.8 mm
01:45 AM 62.5°F16.9°C 62.0°F16.7°C 98% 4.6 mph S7.4 kmh S 8.5 mph13.7 kmh 29.74 in1007.1 mb 0.03 in0.8 mm 0.00 in0.0 mm 0.11 in2.8 mm
01:50 AM 62.4°F16.9°C 61.8°F16.6°C 98% 4.2 mph SSW6.8 kmh SSW 6.7 mph10.8 kmh 29.70 in1005.8 mb 0.03 in0.8 mm 0.00 in0.0 mm 0.11 in2.8 mm
01:55 AM 62.4°F16.9°C 61.8°F16.6°C 98% 5.2 mph SW8.4 kmh SW 10.3 mph16.6 kmh 29.68 in1005.1 mb 0.03 in0.8 mm 0.00 in0.0 mm 0.11 in2.8 mm
02:00 AM 62.4°F16.9°C 61.8°F16.6°C 98% 4.9 mph SSW7.9 kmh SSW 10.3 mph16.6 kmh 29.68 in1005.1 mb 0.03 in0.8 mm 0.00 in0.0 mm 0.11 in2.8 mm
02:05 AM 62.4°F16.9°C 61.8°F16.6°C 98% 4.2 mph SW6.8 kmh SW 7.6 mph12.2 kmh 29.68 in1005.1 mb 0.03 in0.8 mm 0.00 in0.0 mm 0.11 in2.8 mm
02:10 AM 62.4°F16.9°C 61.8°F16.6°C 98% 5.0 mph SW8.0 kmh SW 11.0 mph17.7 kmh 29.68 in1005.1 mb 0.07 in1.8 mm 0.48 in12.2 mm 0.15 in3.8 mm
02:15 AM 62.4°F16.9°C 61.8°F16.6°C 98% 4.5 mph SSW7.2 kmh SSW 12.5 mph20.1 kmh 29.68 in1005.1 mb 0.07 in1.8 mm 0.00 in0.0 mm 0.15 in3.8 mm
02:20 AM 62.4°F16.9°C 61.8°F16.6°C 98% 5.8 mph SSE9.3 kmh SSE 13.2 mph21.2 kmh 29.70 in1005.8 mb 0.00 in0.0 mm 0.00 in0.0 mm 0.15 in3.8 mm
02:25 AM 62.4°F16.9°C 61.8°F16.6°C 98% 5.9 mph SSW9.5 kmh SSW 10.7 mph17.2 kmh 29.71 in1006.1 mb 0.00 in0.0 mm 0.00 in0.0 mm 0.15 in3.8 mm
02:30 AM 62.4°F16.9°C 61.8°F16.6°C 98% 4.9 mph SW7.9 kmh SW 14.8 mph23.8 kmh 29.71 in1006.1 mb 0.00 in0.0 mm 0.00 in0.0 mm 0.15 in3.8 mm
02:35 AM 62.4°F16.9°C 61.8°F16.6°C 98% 6.1 mph SW9.8 kmh SW 13.2 mph21.2 kmh 29.69 in1005.4 mb 0.00 in0.0 mm 0.00 in0.0 mm 0.15 in3.8 mm
02:40 AM 62.4°F16.9°C 61.8°F16.6°C 98% 4.5 mph SW7.2 kmh SW 11.4 mph18.3 kmh 29.68 in1005.1 mb 0.00 in0.0 mm 0.00 in0.0 mm 0.15 in3.8 mm
02:45 AM 62.4°F16.9°C 61.8°F16.6°C 98% 5.4 mph SW8.7 kmh SW 12.5 mph20.1 kmh 29.68 in1005.1 mb 0.00 in0.0 mm 0.00 in0.0 mm 0.15 in3.8 mm
02:50 AM 62.6°F17.0°C 62.0°F16.7°C 98% 6.2 mph WSW10.0 kmh WSW 13.4 mph21.6 kmh 29.70 in1005.8 mb 0.00 in0.0 mm 0.00 in0.0 mm 0.15 in3.8 mm
02:55 AM 62.5°F16.9°C 62.0°F16.7°C 98% 5.6 mph SSW9.0 kmh SSW 9.4 mph15.1 kmh 29.71 in1006.1 mb 0.00 in0.0 mm 0.00 in0.0 mm 0.15 in3.8 mm
03:00 AM 62.4°F16.9°C 61.8°F16.6°C 98% 5.6 mph SSW9.0 kmh SSW 11.4 mph18.3 kmh 29.71 in1006.1 mb 0.00 in0.0 mm 0.00 in0.0 mm 0.15 in3.8 mm
03:05 AM 62.6°F17.0°C 62.0°F16.7°C 98% 6.1 mph SW9.8 kmh SW 11.9 mph19.2 kmh 29.71 in1006.1 mb 0.00 in0.0 mm 0.00 in0.0 mm 0.15 in3.8 mm
03:10 AM 62.6°F17.0°C 62.0°F16.7°C 98% 5.7 mph SSW9.2 kmh SSW 11.0 mph17.7 kmh 29.71 in1006.1 mb 0.04 in1.0 mm 0.48 in12.2 mm 0.19 in4.8 mm
03:15 AM 62.6°F17.0°C 62.0°F16.7°C 98% 6.3 mph SW10.1 kmh SW 12.3 mph19.8 kmh 29.71 in1006.1 mb 0.04 in1.0 mm 0.00 in0.0 mm 0.19 in4.8 mm
03:20 AM 62.4°F16.9°C 61.8°F16.6°C 98% 4.3 mph SW6.9 kmh SW 10.1 mph16.3 kmh 29.69 in1005.4 mb 0.00 in0.0 mm 0.00 in0.0 mm 0.19 in4.8 mm
03:25 AM 62.4°F16.9°C 61.8°F16.6°C 98% 4.0 mph SW6.4 kmh SW 7.4 mph11.9 kmh 29.68 in1005.1 mb 0.00 in0.0 mm 0.00 in0.0 mm 0.19 in4.8 mm
03:30 AM 62.4°F16.9°C 61.8°F16.6°C 98% 5.4 mph SSW8.7 kmh SSW 11.9 mph19.2 kmh 29.68 in1005.1 mb 0.00 in0.0 mm 0.00 in0.0 mm 0.19 in4.8 mm
03:35 AM 62.4°F16.9°C 61.8°F16.6°C 98% 3.8 mph SSW6.1 kmh SSW 7.6 mph12.2 kmh 29.68 in1005.1 mb 0.00 in0.0 mm 0.00 in0.0 mm 0.19 in4.8 mm
03:40 AM 62.4°F16.9°C 61.8°F16.6°C 98% 4.3 mph S6.9 kmh S 13.2 mph21.2 kmh 29.68 in1005.1 mb 0.00 in0.0 mm 0.00 in0.0 mm 0.19 in4.8 mm
03:45 AM 62.4°F16.9°C 61.8°F16.6°C 98% 5.1 mph SW8.2 kmh SW 11.0 mph17.7 kmh 29.68 in1005.1 mb 0.00 in0.0 mm 0.00 in0.0 mm 0.19 in4.8 mm
03:50 AM 62.4°F16.9°C 61.8°F16.6°C 98% 5.5 mph SSW8.9 kmh SSW 10.1 mph16.3 kmh 29.66 in1004.4 mb 0.00 in0.0 mm 0.00 in0.0 mm 0.19 in4.8 mm
03:55 AM 62.4°F16.9°C 61.8°F16.6°C 98% 5.5 mph SW8.9 kmh SW 10.5 mph16.9 kmh 29.65 in1004.1 mb 0.00 in0.0 mm 0.00 in0.0 mm 0.19 in4.8 mm
04:00 AM 62.4°F16.9°C 61.8°F16.6°C 98% 5.2 mph SW8.4 kmh SW 9.8 mph15.8 kmh 29.65 in1004.1 mb 0.00 in0.0 mm 0.00 in0.0 mm 0.19 in4.8 mm
04:05 AM 62.4°F16.9°C 61.8°F16.6°C 98% 5.0 mph SSW8.0 kmh SSW 10.1 mph16.3 kmh 29.63 in1003.4 mb 0.00 in0.0 mm 0.00 in0.0 mm 0.19 in4.8 mm
04:10 AM 62.5°F16.9°C 61.9°F16.6°C 98% 5.2 mph SW8.4 kmh SW 8.5 mph13.7 kmh 29.62 in1003.0 mb 0.00 in0.0 mm 0.00 in0.0 mm 0.19 in4.8 mm
04:15 AM 62.6°F17.0°C 62.0°F16.7°C 98% 4.6 mph SSW7.4 kmh SSW 7.8 mph12.6 kmh 29.62 in1003.0 mb 0.00 in0.0 mm 0.00 in0.0 mm 0.19 in4.8 mm
04:20 AM 62.6°F17.0°C 62.0°F16.7°C 98% 5.5 mph S8.9 kmh S 14.8 mph23.8 kmh 29.62 in1003.0 mb 0.00 in0.0 mm 0.00 in0.0 mm 0.19 in4.8 mm
04:25 AM 62.6°F17.0°C 62.0°F16.7°C 98% 4.6 mph SSW7.4 kmh SSW 9.8 mph15.8 kmh 29.62 in1003.0 mb 0.00 in0.0 mm 0.00 in0.0 mm 0.19 in4.8 mm
04:30 AM 62.6°F17.0°C 62.0°F16.7°C 98% 5.3 mph SW8.5 kmh SW 8.9 mph14.3 kmh 29.62 in1003.0 mb 0.00 in0.0 mm 0.00 in0.0 mm 0.19 in4.8 mm
04:35 AM 62.6°F17.0°C 62.0°F16.7°C 98% 4.6 mph SSW7.4 kmh SSW 10.1 mph16.3 kmh 29.62 in1003.0 mb 0.04 in1.0 mm 0.48 in12.2 mm 0.24 in6.1 mm
04:40 AM 62.6°F17.0°C 62.0°F16.7°C 98% 5.1 mph SSW8.2 kmh SSW 9.2 mph14.8 kmh 29.62 in1003.0 mb 0.04 in1.0 mm 0.00 in0.0 mm 0.24 in6.1 mm
04:45 AM 62.5°F16.9°C 61.9°F16.6°C 98% 6.6 mph WSW10.6 kmh WSW 11.0 mph17.7 kmh 29.62 in1003.0 mb 0.04 in1.0 mm 0.00 in0.0 mm 0.24 in6.1 mm
04:50 AM 62.2°F16.8°C 61.7°F16.5°C 98% 6.2 mph W10.0 kmh W 13.4 mph21.6 kmh 29.62 in1003.0 mb 0.08 in2.0 mm 0.48 in12.2 mm 0.28 in7.1 mm
04:55 AM 62.2°F16.8°C 61.6°F16.4°C 98% 5.8 mph WSW9.3 kmh WSW 9.2 mph14.8 kmh 29.62 in1003.0 mb 0.14 in3.6 mm 0.72 in18.3 mm 0.33 in8.4 mm
05:00 AM 62.1°F16.7°C 61.5°F16.4°C 98% 6.0 mph W9.7 kmh W 8.9 mph14.3 kmh 29.62 in1003.0 mb 0.21 in5.3 mm 0.08 in2.0 mm 0.40 in10.2 mm
05:05 AM 62.1°F16.7°C 61.5°F16.4°C 98% 5.0 mph W8.0 kmh W 8.9 mph14.3 kmh 29.62 in1003.0 mb 0.25 in6.4 mm 0.48 in12.2 mm 0.44 in11.2 mm
05:10 AM 61.9°F16.6°C 61.3°F16.3°C 98% 5.9 mph WSW9.5 kmh WSW 9.8 mph15.8 kmh 29.62 in1003.0 mb 0.29 in7.4 mm 0.48 in12.2 mm 0.49 in12.4 mm
05:15 AM 61.8°F16.6°C 61.3°F16.3°C 98% 4.6 mph WSW7.4 kmh WSW 8.5 mph13.7 kmh 29.62 in1003.0 mb 0.29 in7.4 mm 0.00 in0.0 mm 0.49 in12.4 mm
05:20 AM 61.7°F16.5°C 61.1°F16.2°C 98% 4.8 mph WSW7.7 kmh WSW 8.7 mph14.0 kmh 29.64 in1003.7 mb 0.00 in0.0 mm 0.00 in0.0 mm 0.53 in13.5 mm
05:25 AM 61.7°F16.5°C 61.1°F16.2°C 98% 3.5 mph W5.6 kmh W 6.5 mph10.5 kmh 29.65 in1004.1 mb 0.00 in0.0 mm 0.00 in0.0 mm 0.53 in13.5 mm
05:30 AM 61.5°F16.4°C 60.9°F16.1°C 98% 4.1 mph SW6.6 kmh SW 7.4 mph11.9 kmh 29.65 in1004.1 mb 0.00 in0.0 mm 0.00 in0.0 mm 0.53 in13.5 mm
05:35 AM 61.4°F16.3°C 60.9°F16.1°C 98% 3.5 mph WSW5.6 kmh WSW 6.7 mph10.8 kmh 29.65 in1004.1 mb 0.00 in0.0 mm 0.00 in0.0 mm 0.53 in13.5 mm
05:40 AM 61.3°F16.3°C 60.8°F16.0°C 98% 3.8 mph W6.1 kmh W 7.4 mph11.9 kmh 29.65 in1004.1 mb 0.00 in0.0 mm 0.00 in0.0 mm 0.53 in13.5 mm
05:45 AM 61.3°F16.3°C 60.8°F16.0°C 98% 3.4 mph SW5.5 kmh SW 6.3 mph10.1 kmh 29.65 in1004.1 mb 0.00 in0.0 mm 0.00 in0.0 mm 0.53 in13.5 mm
05:50 AM 61.3°F16.3°C 60.8°F16.0°C 98% 3.8 mph SW6.1 kmh SW 6.0 mph9.7 kmh 29.65 in1004.1 mb 0.00 in0.0 mm 0.00 in0.0 mm 0.53 in13.5 mm
05:55 AM 61.2°F16.2°C 60.6°F15.9°C 98% 2.9 mph WSW4.7 kmh WSW 6.3 mph10.1 kmh 29.65 in1004.1 mb 0.00 in0.0 mm 0.00 in0.0 mm 0.53 in13.5 mm
06:00 AM 61.0°F16.1°C 60.4°F15.8°C 98% 3.5 mph SW5.6 kmh SW 6.9 mph11.1 kmh 29.65 in1004.1 mb 0.00 in0.0 mm 0.00 in0.0 mm 0.53 in13.5 mm
06:05 AM 61.0°F16.1°C 60.4°F15.8°C 98% 4.2 mph WSW6.8 kmh WSW 8.1 mph13.0 kmh 29.65 in1004.1 mb 0.00 in0.0 mm 0.00 in0.0 mm 0.53 in13.5 mm
06:10 AM 61.0°F16.1°C 60.4°F15.8°C 98% 4.4 mph SW7.1 kmh SW 8.1 mph13.0 kmh 29.65 in1004.1 mb 0.00 in0.0 mm 0.00 in0.0 mm 0.53 in13.5 mm
06:15 AM 61.2°F16.2°C 60.6°F15.9°C 98% 5.0 mph SW8.0 kmh SW 7.8 mph12.6 kmh 29.65 in1004.1 mb 0.00 in0.0 mm 0.00 in0.0 mm 0.53 in13.5 mm
06:20 AM 61.4°F16.3°C 60.8°F16.0°C 98% 5.2 mph WSW8.4 kmh WSW 9.2 mph14.8 kmh 29.65 in1004.1 mb 0.00 in0.0 mm 0.00 in0.0 mm 0.53 in13.5 mm
06:25 AM 61.7°F16.5°C 61.1°F16.2°C 98% 5.5 mph WSW8.9 kmh WSW 10.5 mph16.9 kmh 29.65 in1004.1 mb 0.00 in0.0 mm 0.00 in0.0 mm 0.53 in13.5 mm
06:30 AM 61.9°F16.6°C 61.3°F16.3°C 98% 5.8 mph WSW9.3 kmh WSW 9.4 mph15.1 kmh 29.65 in1004.1 mb 0.00 in0.0 mm 0.00 in0.0 mm 0.53 in13.5 mm
06:35 AM 62.1°F16.7°C 61.5°F16.4°C 98% 5.1 mph WSW8.2 kmh WSW 7.8 mph12.6 kmh 29.65 in1004.1 mb 0.00 in0.0 mm 0.00 in0.0 mm 0.53 in13.5 mm
06:40 AM 62.1°F16.7°C 61.5°F16.4°C 98% 3.8 mph SW6.1 kmh SW 6.7 mph10.8 kmh 29.65 in1004.1 mb 0.00 in0.0 mm 0.00 in0.0 mm 0.53 in13.5 mm
06:45 AM 62.1°F16.7°C 61.5°F16.4°C 98% 6.0 mph SW9.7 kmh SW 10.1 mph16.3 kmh 29.65 in1004.1 mb 0.00 in0.0 mm 0.00 in0.0 mm 0.53 in13.5 mm
06:50 AM 62.1°F16.7°C 61.5°F16.4°C 98% 4.8 mph WSW7.7 kmh WSW 8.5 mph13.7 kmh 29.67 in1004.7 mb 0.00 in0.0 mm 0.00 in0.0 mm 0.53 in13.5 mm
06:55 AM 62.1°F16.7°C 61.5°F16.4°C 98% 5.6 mph SW9.0 kmh SW 8.7 mph14.0 kmh 29.68 in1005.1 mb 0.00 in0.0 mm 0.00 in0.0 mm 0.53 in13.5 mm
07:00 AM 62.1°F16.7°C 61.5°F16.4°C 98% 3.1 mph WSW5.0 kmh WSW 5.1 mph8.2 kmh 29.68 in1005.1 mb 0.00 in0.0 mm 0.00 in0.0 mm 0.53 in13.5 mm
07:05 AM 62.1°F16.7°C 61.5°F16.4°C 98% 4.2 mph W6.8 kmh W 7.4 mph11.9 kmh 29.66 in1004.4 mb 0.00 in0.0 mm 0.00 in0.0 mm 0.53 in13.5 mm
07:10 AM 62.1°F16.7°C 61.5°F16.4°C 98% 5.4 mph WSW8.7 kmh WSW 9.8 mph15.8 kmh 29.65 in1004.1 mb 0.00 in0.0 mm 0.00 in0.0 mm 0.53 in13.5 mm
07:15 AM 62.1°F16.7°C 61.5°F16.4°C 98% 3.2 mph WSW5.1 kmh WSW 6.0 mph9.7 kmh 29.65 in1004.1 mb 0.00 in0.0 mm 0.00 in0.0 mm 0.53 in13.5 mm
07:20 AM 62.1°F16.7°C 61.5°F16.4°C 98% 3.9 mph WSW6.3 kmh WSW 6.3 mph10.1 kmh 29.65 in1004.1 mb 0.00 in0.0 mm 0.00 in0.0 mm 0.53 in13.5 mm
07:25 AM 62.1°F16.7°C 61.5°F16.4°C 98% 5.0 mph W8.0 kmh W 9.2 mph14.8 kmh 29.65 in1004.1 mb 0.00 in0.0 mm 0.00 in0.0 mm 0.53 in13.5 mm
07:30 AM 62.1°F16.7°C 61.5°F16.4°C 98% 4.6 mph WSW7.4 kmh WSW 6.7 mph10.8 kmh 29.65 in1004.1 mb 0.00 in0.0 mm 0.00 in0.0 mm 0.53 in13.5 mm
07:35 AM 62.1°F16.7°C 61.5°F16.4°C 98% 4.1 mph W6.6 kmh W 7.8 mph12.6 kmh 29.65 in1004.1 mb 0.00 in0.0 mm 0.00 in0.0 mm 0.53 in13.5 mm
07:40 AM 62.1°F16.7°C 61.5°F16.4°C 98% 5.0 mph W8.0 kmh W 9.4 mph15.1 kmh 29.65 in1004.1 mb 0.00 in0.0 mm 0.00 in0.0 mm 0.53 in13.5 mm
07:45 AM 62.1°F16.7°C 61.5°F16.4°C 98% 5.8 mph WSW9.3 kmh WSW 10.1 mph16.3 kmh 29.65 in1004.1 mb 0.04 in1.0 mm 0.48 in12.2 mm 0.57 in14.5 mm
07:50 AM 62.1°F16.7°C 61.5°F16.4°C 98% 5.1 mph W8.2 kmh W 10.3 mph16.6 kmh 29.65 in1004.1 mb 0.04 in1.0 mm 0.00 in0.0 mm 0.57 in14.5 mm
07:55 AM 62.1°F16.7°C 61.5°F16.4°C 98% 6.9 mph WSW11.1 kmh WSW 10.3 mph16.6 kmh 29.65 in1004.1 mb 0.04 in1.0 mm 0.00 in0.0 mm 0.57 in14.5 mm
08:00 AM 62.1°F16.7°C 61.5°F16.4°C 98% 6.2 mph W10.0 kmh W 12.5 mph20.1 kmh 29.65 in1004.1 mb 0.04 in1.0 mm 0.00 in0.0 mm 0.57 in14.5 mm
08:05 AM 62.1°F16.7°C 61.5°F16.4°C 98% 5.8 mph WSW9.3 kmh WSW 11.2 mph18.0 kmh 29.65 in1004.1 mb 0.04 in1.0 mm 0.00 in0.0 mm 0.57 in14.5 mm
08:10 AM 62.1°F16.7°C 61.5°F16.4°C 98% 5.6 mph W9.0 kmh W 10.1 mph16.3 kmh 29.65 in1004.1 mb 0.04 in1.0 mm 0.00 in0.0 mm 0.57 in14.5 mm
08:15 AM 62.1°F16.7°C 61.5°F16.4°C 98% 6.2 mph WSW10.0 kmh WSW 13.4 mph21.6 kmh 29.65 in1004.1 mb 0.04 in1.0 mm 0.00 in0.0 mm 0.57 in14.5 mm
08:20 AM 61.9°F16.6°C 61.4°F16.3°C 98% 6.1 mph W9.8 kmh W 10.5 mph16.9 kmh 29.63 in1003.4 mb 0.00 in0.0 mm 0.00 in0.0 mm 0.57 in14.5 mm
08:25 AM 61.8°F16.6°C 61.2°F16.2°C 98% 7.4 mph WSW11.9 kmh WSW 14.8 mph23.8 kmh 29.62 in1003.0 mb 0.00 in0.0 mm 0.00 in0.0 mm 0.57 in14.5 mm
08:30 AM 61.8°F16.6°C 61.2°F16.2°C 98% 8.0 mph WSW12.9 kmh WSW 13.9 mph22.4 kmh 29.62 in1003.0 mb 0.00 in0.0 mm 0.00 in0.0 mm 0.57 in14.5 mm
08:35 AM 61.9°F16.6°C 61.3°F16.3°C 98% 8.7 mph W14.0 kmh W 16.3 mph26.2 kmh 29.64 in1003.7 mb 0.00 in0.0 mm 0.00 in0.0 mm 0.57 in14.5 mm
08:40 AM 62.1°F16.7°C 61.5°F16.4°C 98% 6.9 mph WSW11.1 kmh WSW 15.2 mph24.5 kmh 29.65 in1004.1 mb 0.00 in0.0 mm 0.00 in0.0 mm 0.57 in14.5 mm
08:45 AM 62.1°F16.7°C 61.5°F16.4°C 98% 6.7 mph WSW10.8 kmh WSW 10.5 mph16.9 kmh 29.65 in1004.1 mb 0.00 in0.0 mm 0.00 in0.0 mm 0.57 in14.5 mm
08:50 AM 62.5°F16.9°C 61.9°F16.6°C 98% 6.1 mph W9.8 kmh W 10.5 mph16.9 kmh 29.65 in1004.1 mb 0.00 in0.0 mm 0.00 in0.0 mm 0.57 in14.5 mm
08:55 AM 62.8°F17.1°C 62.3°F16.8°C 98% 6.5 mph WSW10.5 kmh WSW 11.9 mph19.2 kmh 29.65 in1004.1 mb 0.00 in0.0 mm 0.00 in0.0 mm 0.57 in14.5 mm
09:00 AM 62.7°F17.1°C 62.0°F16.7°C 98% 6.6 mph W10.6 kmh W 11.4 mph18.3 kmh 29.65 in1004.1 mb 0.00 in0.0 mm 0.00 in0.0 mm 0.57 in14.5 mm
09:05 AM 62.5°F16.9°C 61.6°F16.4°C 97% 6.2 mph W10.0 kmh W 10.7 mph17.2 kmh 29.65 in1004.1 mb 0.00 in0.0 mm 0.00 in0.0 mm 0.57 in14.5 mm
09:10 AM 62.5°F16.9°C 61.7°F16.5°C 97% 5.9 mph W9.5 kmh W 9.4 mph15.1 kmh 29.65 in1004.1 mb 0.00 in0.0 mm 0.00 in0.0 mm 0.57 in14.5 mm
09:15 AM 62.8°F17.1°C 62.0°F16.7°C 97% 3.9 mph W6.3 kmh W 6.7 mph10.8 kmh -- 0.00 in0.0 mm 0.00 in0.0 mm 0.57 in14.5 mm
09:20 AM 63.3°F17.4°C 62.7°F17.1°C 98% 4.3 mph W6.9 kmh W 6.5 mph10.5 kmh 29.65 in1004.1 mb 0.00 in0.0 mm 0.00 in0.0 mm 0.57 in14.5 mm
09:25 AM 63.6°F17.6°C 62.9°F17.2°C 98% 4.6 mph W7.4 kmh W 8.3 mph13.4 kmh 29.65 in1004.1 mb 0.00 in0.0 mm 0.00 in0.0 mm 0.57 in14.5 mm
09:30 AM 63.2°F17.3°C 62.1°F16.7°C 96% 5.3 mph WSW8.5 kmh WSW 8.9 mph14.3 kmh 29.65 in1004.1 mb 0.00 in0.0 mm 0.00 in0.0 mm 0.57 in14.5 mm
09:35 AM 63.2°F17.3°C 62.1°F16.7°C 96% 5.8 mph WSW9.3 kmh WSW 9.2 mph14.8 kmh 29.67 in1004.7 mb 0.00 in0.0 mm 0.00 in0.0 mm 0.57 in14.5 mm
09:40 AM 63.1°F17.3°C 62.0°F16.7°C 96% 4.9 mph WSW7.9 kmh WSW 10.1 mph16.3 kmh 29.68 in1005.1 mb 0.00 in0.0 mm 0.00 in0.0 mm 0.57 in14.5 mm
09:45 AM 63.2°F17.3°C 62.0°F16.7°C 96% 5.1 mph WSW8.2 kmh WSW 8.9 mph14.3 kmh 29.68 in1005.1 mb 0.00 in0.0 mm 0.00 in0.0 mm 0.57 in14.5 mm
09:50 AM 63.2°F17.3°C 62.0°F16.7°C 96% 6.2 mph WSW10.0 kmh WSW 11.2 mph18.0 kmh 29.70 in1005.8 mb 0.00 in0.0 mm 0.00 in0.0 mm 0.57 in14.5 mm
09:55 AM 63.4°F17.4°C 62.0°F16.7°C 95% 6.6 mph WSW10.6 kmh WSW 9.8 mph15.8 kmh 29.71 in1006.1 mb 0.00 in0.0 mm 0.00 in0.0 mm 0.57 in14.5 mm
10:00 AM 63.7°F17.6°C 62.5°F16.9°C 96% 4.5 mph W7.2 kmh W 8.9 mph14.3 kmh 29.71 in1006.1 mb 0.00 in0.0 mm 0.00 in0.0 mm 0.57 in14.5 mm
10:05 AM 64.5°F18.1°C 63.1°F17.3°C 95% 5.5 mph W8.9 kmh W 11.6 mph18.7 kmh 29.71 in1006.1 mb 0.00 in0.0 mm 0.00 in0.0 mm 0.57 in14.5 mm
10:10 AM 65.9°F18.8°C 63.4°F17.4°C 92% 5.8 mph WSW9.3 kmh WSW 10.1 mph16.3 kmh 29.71 in1006.1 mb 0.00 in0.0 mm 0.00 in0.0 mm 0.57 in14.5 mm
10:15 AM 66.5°F19.2°C 63.3°F17.4°C 90% 6.2 mph W10.0 kmh W 11.2 mph18.0 kmh 29.71 in1006.1 mb 0.00 in0.0 mm 0.00 in0.0 mm 0.57 in14.5 mm
10:20 AM 66.0°F18.9°C 62.8°F17.1°C 90% 5.6 mph WSW9.0 kmh WSW 9.8 mph15.8 kmh 29.71 in1006.1 mb 0.00 in0.0 mm 0.00 in0.0 mm 0.57 in14.5 mm
10:25 AM 66.8°F19.3°C 63.6°F17.6°C 90% 4.8 mph WSW7.7 kmh WSW 10.3 mph16.6 kmh 29.71 in1006.1 mb 0.00 in0.0 mm 0.00 in0.0 mm 0.57 in14.5 mm
10:30 AM 66.6°F19.2°C 62.7°F17.1°C 87% 7.2 mph WSW11.6 kmh WSW 12.8 mph20.6 kmh 29.71 in1006.1 mb 0.00 in0.0 mm 0.00 in0.0 mm 0.57 in14.5 mm
10:35 AM 65.3°F18.5°C 61.9°F16.6°C 89% 5.3 mph WSW8.5 kmh WSW 12.8 mph20.6 kmh 29.71 in1006.1 mb 0.00 in0.0 mm 0.00 in0.0 mm 0.57 in14.5 mm
10:40 AM 64.7°F18.2°C 62.2°F16.8°C 92% 5.1 mph W8.2 kmh W 8.5 mph13.7 kmh 29.71 in1006.1 mb 0.00 in0.0 mm 0.00 in0.0 mm 0.57 in14.5 mm
10:45 AM 64.2°F17.9°C 62.5°F16.9°C 94% 5.8 mph W9.3 kmh W 10.7 mph17.2 kmh 29.71 in1006.1 mb 0.00 in0.0 mm 0.00 in0.0 mm 0.57 in14.5 mm
10:50 AM 64.3°F17.9°C 62.8°F17.1°C 95% 5.8 mph WSW9.3 kmh WSW 14.1 mph22.7 kmh 29.69 in1005.4 mb 0.00 in0.0 mm 0.00 in0.0 mm 0.57 in14.5 mm
10:55 AM 64.1°F17.8°C 62.7°F17.1°C 95% 6.6 mph WSW10.6 kmh WSW 12.3 mph19.8 kmh 29.68 in1005.1 mb 0.00 in0.0 mm 0.00 in0.0 mm 0.57 in14.5 mm
11:00 AM 64.8°F18.2°C 63.4°F17.4°C 95% 5.7 mph WSW9.2 kmh WSW 11.4 mph18.3 kmh 29.68 in1005.1 mb 0.00 in0.0 mm 0.00 in0.0 mm 0.57 in14.5 mm
11:05 AM 65.7°F18.7°C 63.5°F17.5°C 92% 7.4 mph WSW11.9 kmh WSW 13.6 mph21.9 kmh 29.70 in1005.8 mb 0.00 in0.0 mm 0.00 in0.0 mm 0.57 in14.5 mm
11:10 AM 66.7°F19.3°C 63.4°F17.4°C 89% 6.9 mph WSW11.1 kmh WSW 13.0 mph20.9 kmh 29.71 in1006.1 mb 0.00 in0.0 mm 0.00 in0.0 mm 0.57 in14.5 mm
11:15 AM 67.2°F19.6°C 63.6°F17.6°C 88% 6.2 mph WSW10.0 kmh WSW 10.7 mph17.2 kmh 29.71 in1006.1 mb 0.00 in0.0 mm 0.00 in0.0 mm 0.57 in14.5 mm
11:20 AM 68.4°F20.2°C 64.1°F17.8°C 86% 6.8 mph WSW10.9 kmh WSW 13.0 mph20.9 kmh 29.71 in1006.1 mb 0.00 in0.0 mm 0.00 in0.0 mm 0.57 in14.5 mm
11:25 AM 68.5°F20.3°C 63.1°F17.3°C 83% 6.3 mph WSW10.1 kmh WSW 11.9 mph19.2 kmh 29.71 in1006.1 mb 0.00 in0.0 mm 0.00 in0.0 mm 0.57 in14.5 mm
11:30 AM 68.4°F20.2°C 63.0°F17.2°C 83% 7.1 mph WSW11.4 kmh WSW 15.4 mph24.8 kmh 29.71 in1006.1 mb 0.00 in0.0 mm 0.00 in0.0 mm 0.57 in14.5 mm
11:35 AM 68.7°F20.4°C 63.4°F17.4°C 83% 5.8 mph WSW9.3 kmh WSW 13.0 mph20.9 kmh 29.71 in1006.1 mb 0.00 in0.0 mm 0.00 in0.0 mm 0.57 in14.5 mm
11:40 AM 68.4°F20.2°C 62.8°F17.1°C 82% 7.6 mph WSW12.2 kmh WSW 11.9 mph19.2 kmh 29.71 in1006.1 mb 0.00 in0.0 mm 0.00 in0.0 mm 0.57 in14.5 mm
11:45 AM 68.0°F20.0°C 61.8°F16.6°C 80% 9.2 mph W14.8 kmh W 16.6 mph26.7 kmh 29.71 in1006.1 mb 0.00 in0.0 mm 0.00 in0.0 mm 0.57 in14.5 mm
11:50 AM 68.0°F20.0°C 61.9°F16.6°C 81% 8.6 mph W13.8 kmh W 15.0 mph24.1 kmh 29.71 in1006.1 mb 0.00 in0.0 mm 0.00 in0.0 mm 0.57 in14.5 mm
11:55 AM 68.5°F20.3°C 62.3°F16.8°C 81% 8.9 mph WSW14.3 kmh WSW 13.9 mph22.4 kmh 29.71 in1006.1 mb 0.00 in0.0 mm 0.00 in0.0 mm 0.57 in14.5 mm
12:00 PM 68.8°F20.4°C 62.6°F17.0°C 81% 9.3 mph WSW15.0 kmh WSW 14.3 mph23.0 kmh 29.71 in1006.1 mb 0.00 in0.0 mm 0.00 in0.0 mm 0.57 in14.5 mm
12:05 PM 69.0°F20.6°C 62.6°F17.0°C 80% 7.7 mph W12.4 kmh W 15.2 mph24.5 kmh 29.71 in1006.1 mb 0.00 in0.0 mm 0.00 in0.0 mm 0.57 in14.5 mm
12:10 PM 69.4°F20.8°C 62.6°F17.0°C 79% 8.0 mph W12.9 kmh W 14.1 mph22.7 kmh 29.71 in1006.1 mb 0.00 in0.0 mm 0.00 in0.0 mm 0.57 in14.5 mm
12:15 PM 69.7°F20.9°C 62.7°F17.1°C 78% 7.8 mph WSW12.6 kmh WSW 13.9 mph22.4 kmh 29.71 in1006.1 mb 0.00 in0.0 mm 0.00 in0.0 mm 0.57 in14.5 mm
12:20 PM 69.6°F20.9°C 62.3°F16.8°C 78% 7.2 mph W11.6 kmh W 11.2 mph18.0 kmh 29.71 in1006.1 mb 0.00 in0.0 mm 0.00 in0.0 mm 0.57 in14.5 mm
12:25 PM 69.5°F20.8°C 62.7°F17.1°C 79% 8.8 mph W14.2 kmh W 13.6 mph21.9 kmh 29.71 in1006.1 mb 0.00 in0.0 mm 0.00 in0.0 mm 0.57 in14.5 mm
12:30 PM 69.8°F21.0°C 61.9°F16.6°C 76% 8.5 mph WSW13.7 kmh WSW 14.1 mph22.7 kmh 29.71 in1006.1 mb 0.00 in0.0 mm 0.00 in0.0 mm 0.57 in14.5 mm
12:35 PM 69.4°F20.8°C 62.0°F16.7°C 77% 8.0 mph WSW12.9 kmh WSW 13.4 mph21.6 kmh 29.71 in1006.1 mb 0.00 in0.0 mm 0.00 in0.0 mm 0.57 in14.5 mm
12:40 PM 69.8°F21.0°C 62.3°F16.8°C 77% 7.5 mph W12.1 kmh W 12.8 mph20.6 kmh 29.71 in1006.1 mb 0.00 in0.0 mm 0.00 in0.0 mm 0.57 in14.5 mm
12:45 PM 70.3°F21.3°C 61.8°F16.6°C 74% 9.3 mph WSW15.0 kmh WSW 16.1 mph25.9 kmh 29.71 in1006.1 mb 0.00 in0.0 mm 0.00 in0.0 mm 0.57 in14.5 mm
12:50 PM 70.6°F21.4°C 62.1°F16.7°C 75% 8.0 mph WSW12.9 kmh WSW 13.4 mph21.6 kmh 29.73 in1006.8 mb 0.00 in0.0 mm 0.00 in0.0 mm 0.57 in14.5 mm
12:55 PM 69.9°F21.1°C 61.1°F16.2°C 74% 10.5 mph W16.9 kmh W 15.2 mph24.5 kmh 29.74 in1007.1 mb 0.00 in0.0 mm 0.00 in0.0 mm 0.57 in14.5 mm
01:00 PM 69.6°F20.9°C 61.0°F16.1°C 74% 9.5 mph WSW15.3 kmh WSW 17.2 mph27.7 kmh 29.74 in1007.1 mb 0.00 in0.0 mm 0.00 in0.0 mm 0.57 in14.5 mm
01:05 PM 69.0°F20.6°C 61.2°F16.2°C 76% 7.8 mph WSW12.6 kmh WSW 15.2 mph24.5 kmh 29.74 in1007.1 mb 0.00 in0.0 mm 0.00 in0.0 mm 0.57 in14.5 mm
01:10 PM 68.4°F20.2°C 60.1°F15.6°C 75% 10.4 mph WSW16.7 kmh WSW 23.9 mph38.5 kmh 29.74 in1007.1 mb 0.00 in0.0 mm 0.00 in0.0 mm 0.57 in14.5 mm
01:15 PM 67.6°F19.8°C 59.9°F15.5°C 76% 10.2 mph WSW16.4 kmh WSW 17.4 mph28.0 kmh 29.74 in1007.1 mb 0.00 in0.0 mm 0.00 in0.0 mm 0.57 in14.5 mm
01:20 PM 67.7°F19.8°C 61.0°F16.1°C 79% 7.9 mph WSW12.7 kmh WSW 14.3 mph23.0 kmh 29.74 in1007.1 mb 0.00 in0.0 mm 0.00 in0.0 mm 0.57 in14.5 mm
01:25 PM 68.4°F20.2°C 61.9°F16.6°C 80% 7.1 mph WSW11.4 kmh WSW 12.5 mph20.1 kmh 29.74 in1007.1 mb 0.00 in0.0 mm 0.00 in0.0 mm 0.57 in14.5 mm
01:30 PM 68.1°F20.1°C 61.2°F16.2°C 79% 7.6 mph WSW12.2 kmh WSW 20.6 mph33.2 kmh 29.74 in1007.1 mb 0.00 in0.0 mm 0.00 in0.0 mm 0.57 in14.5 mm
01:35 PM 68.0°F20.0°C 61.6°F16.4°C 80% 7.9 mph WSW12.7 kmh WSW 15.0 mph24.1 kmh 29.74 in1007.1 mb 0.00 in0.0 mm 0.00 in0.0 mm 0.57 in14.5 mm
01:40 PM 67.8°F19.9°C 61.1°F16.2°C 79% 8.4 mph WSW13.5 kmh WSW 15.0 mph24.1 kmh 29.74 in1007.1 mb 0.00 in0.0 mm 0.00 in0.0 mm 0.57 in14.5 mm
01:45 PM 67.9°F19.9°C 61.4°F16.3°C 80% 6.5 mph WSW10.5 kmh WSW 13.9 mph22.4 kmh 29.74 in1007.1 mb 0.00 in0.0 mm 0.00 in0.0 mm 0.57 in14.5 mm
01:50 PM 68.3°F20.2°C 61.9°F16.6°C 80% 8.2 mph WSW13.2 kmh WSW 13.4 mph21.6 kmh 29.74 in1007.1 mb 0.00 in0.0 mm 0.00 in0.0 mm 0.57 in14.5 mm
01:55 PM 68.2°F20.1°C 61.7°F16.5°C 80% 7.3 mph WSW11.7 kmh WSW 10.5 mph16.9 kmh 29.74 in1007.1 mb 0.00 in0.0 mm 0.00 in0.0 mm 0.57 in14.5 mm
02:00 PM 68.6°F20.3°C 62.2°F16.8°C 80% 6.8 mph WSW10.9 kmh WSW 13.4 mph21.6 kmh 29.74 in1007.1 mb 0.00 in0.0 mm 0.00 in0.0 mm 0.57 in14.5 mm
02:05 PM 68.3°F20.2°C 61.1°F16.2°C 78% 7.6 mph WSW12.2 kmh WSW 13.9 mph22.4 kmh 29.74 in1007.1 mb 0.00 in0.0 mm 0.00 in0.0 mm 0.57 in14.5 mm
02:10 PM 67.6°F19.8°C 60.7°F15.9°C 78% 8.4 mph W13.5 kmh W 16.1 mph25.9 kmh 29.74 in1007.1 mb 0.00 in0.0 mm 0.00 in0.0 mm 0.57 in14.5 mm
02:15 PM 68.6°F20.3°C 61.7°F16.5°C 79% 6.5 mph WSW10.5 kmh WSW 9.2 mph14.8 kmh 29.74 in1007.1 mb 0.00 in0.0 mm 0.00 in0.0 mm 0.57 in14.5 mm
02:20 PM 68.2°F20.1°C 60.7°F15.9°C 77% 8.5 mph WSW13.7 kmh WSW 14.3 mph23.0 kmh 29.74 in1007.1 mb 0.00 in0.0 mm 0.00 in0.0 mm 0.57 in14.5 mm
02:25 PM 68.3°F20.2°C 60.9°F16.1°C 77% 7.8 mph WSW12.6 kmh WSW 12.8 mph20.6 kmh 29.74 in1007.1 mb 0.00 in0.0 mm 0.00 in0.0 mm 0.57 in14.5 mm
02:30 PM 68.4°F20.2°C 60.6°F15.9°C 76% 7.4 mph SW11.9 kmh SW 15.0 mph24.1 kmh 29.74 in1007.1 mb 0.00 in0.0 mm 0.00 in0.0 mm 0.57 in14.5 mm
02:35 PM 68.5°F20.3°C 60.7°F15.9°C 76% 10.8 mph WSW17.4 kmh WSW 17.9 mph28.8 kmh 29.74 in1007.1 mb 0.00 in0.0 mm 0.00 in0.0 mm 0.57 in14.5 mm
02:40 PM 68.5°F20.3°C 61.1°F16.2°C 77% 11.2 mph WSW18.0 kmh WSW 14.3 mph23.0 kmh 29.74 in1007.1 mb 0.00 in0.0 mm 0.00 in0.0 mm 0.57 in14.5 mm
02:45 PM 68.2°F20.1°C 60.6°F15.9°C 77% 9.6 mph WSW15.4 kmh WSW 16.8 mph27.0 kmh 29.74 in1007.1 mb 0.00 in0.0 mm 0.00 in0.0 mm 0.57 in14.5 mm
02:50 PM 67.9°F19.9°C 60.1°F15.6°C 76% 10.7 mph W17.2 kmh W 18.1 mph29.1 kmh 29.74 in1007.1 mb 0.00 in0.0 mm 0.00 in0.0 mm 0.57 in14.5 mm
02:55 PM 68.4°F20.2°C 60.7°F15.9°C 76% 9.4 mph WSW15.1 kmh WSW 15.4 mph24.8 kmh 29.74 in1007.1 mb 0.00 in0.0 mm 0.00 in0.0 mm 0.57 in14.5 mm
03:00 PM 68.3°F20.2°C 59.7°F15.4°C 74% 9.5 mph W15.3 kmh W 18.1 mph29.1 kmh 29.74 in1007.1 mb 0.00 in0.0 mm 0.00 in0.0 mm 0.57 in14.5 mm
03:05 PM 68.3°F20.2°C 60.2°F15.7°C 75% 10.8 mph WSW17.4 kmh WSW 26.6 mph42.8 kmh 29.74 in1007.1 mb 0.00 in0.0 mm 0.00 in0.0 mm 0.57 in14.5 mm
03:10 PM 68.1°F20.1°C 60.9°F16.1°C 78% 7.5 mph WSW12.1 kmh WSW 14.1 mph22.7 kmh 29.74 in1007.1 mb 0.00 in0.0 mm 0.00 in0.0 mm 0.57 in14.5 mm
03:15 PM 68.0°F20.0°C 60.6°F15.9°C 77% 10.2 mph WSW16.4 kmh WSW 18.1 mph29.1 kmh 29.74 in1007.1 mb 0.00 in0.0 mm 0.00 in0.0 mm 0.57 in14.5 mm
03:20 PM 67.5°F19.7°C 60.3°F15.7°C 78% 11.0 mph W17.7 kmh W 17.4 mph28.0 kmh 29.74 in1007.1 mb 0.00 in0.0 mm 0.00 in0.0 mm 0.57 in14.5 mm
03:25 PM 66.3°F19.1°C 60.1°F15.6°C 80% 6.8 mph WSW10.9 kmh WSW 14.8 mph23.8 kmh 29.74 in1007.1 mb 0.00 in0.0 mm 0.00 in0.0 mm 0.57 in14.5 mm
03:30 PM 65.7°F18.7°C 59.5°F15.3°C 80% 9.0 mph WSW14.5 kmh WSW 18.1 mph29.1 kmh 29.74 in1007.1 mb 0.00 in0.0 mm 0.00 in0.0 mm 0.57 in14.5 mm
03:35 PM 66.8°F19.3°C 60.6°F15.9°C 81% 6.1 mph WSW9.8 kmh WSW 12.5 mph20.1 kmh 29.74 in1007.1 mb 0.00 in0.0 mm 0.00 in0.0 mm 0.57 in14.5 mm
03:40 PM 66.5°F19.2°C 59.8°F15.4°C 79% 7.7 mph WSW12.4 kmh WSW 17.4 mph28.0 kmh 29.74 in1007.1 mb 0.00 in0.0 mm 0.00 in0.0 mm 0.57 in14.5 mm
03:45 PM 66.3°F19.1°C 59.8°F15.4°C 80% 7.4 mph W11.9 kmh W 12.8 mph20.6 kmh 29.74 in1007.1 mb 0.00 in0.0 mm 0.00 in0.0 mm 0.57 in14.5 mm
03:50 PM 66.9°F19.4°C 60.8°F16.0°C 81% 5.0 mph WSW8.0 kmh WSW 12.5 mph20.1 kmh 29.74 in1007.1 mb 0.00 in0.0 mm 0.00 in0.0 mm 0.57 in14.5 mm
03:55 PM 68.1°F20.1°C 61.7°F16.5°C 80% 5.1 mph WSW8.2 kmh WSW 8.5 mph13.7 kmh 29.74 in1007.1 mb 0.00 in0.0 mm 0.00 in0.0 mm 0.57 in14.5 mm
04:00 PM 68.4°F20.2°C 60.4°F15.8°C 76% 7.0 mph SW11.3 kmh SW 13.6 mph21.9 kmh 29.74 in1007.1 mb 0.00 in0.0 mm 0.00 in0.0 mm 0.57 in14.5 mm
04:05 PM 67.3°F19.6°C 59.3°F15.2°C 75% 7.8 mph WSW12.6 kmh WSW 11.4 mph18.3 kmh 29.74 in1007.1 mb 0.00 in0.0 mm 0.00 in0.0 mm 0.57 in14.5 mm
04:10 PM 66.9°F19.4°C 59.0°F15.0°C 76% 6.8 mph WSW10.9 kmh WSW 14.8 mph23.8 kmh 29.74 in1007.1 mb 0.00 in0.0 mm 0.00 in0.0 mm 0.57 in14.5 mm
04:15 PM 67.0°F19.4°C 59.3°F15.2°C 76% 6.6 mph WSW10.6 kmh WSW 10.3 mph16.6 kmh 29.74 in1007.1 mb 0.00 in0.0 mm 0.00 in0.0 mm 0.57 in14.5 mm
04:20 PM 66.4°F19.1°C 59.5°F15.3°C 78% 6.3 mph WSW10.1 kmh WSW 17.2 mph27.7 kmh 29.74 in1007.1 mb 0.00 in0.0 mm 0.00 in0.0 mm 0.57 in14.5 mm
04:25 PM 66.2°F19.0°C 59.8°F15.4°C 80% 6.0 mph WSW9.7 kmh WSW 13.2 mph21.2 kmh 29.74 in1007.1 mb 0.00 in0.0 mm 0.00 in0.0 mm 0.57 in14.5 mm
04:30 PM 66.3°F19.1°C 59.9°F15.5°C 80% 6.0 mph WSW9.7 kmh WSW 11.9 mph19.2 kmh 29.74 in1007.1 mb 0.00 in0.0 mm 0.00 in0.0 mm 0.57 in14.5 mm
04:35 PM 66.2°F19.0°C 59.8°F15.4°C 80% 7.3 mph SW11.7 kmh SW 12.8 mph20.6 kmh 29.74 in1007.1 mb 0.00 in0.0 mm 0.00 in0.0 mm 0.57 in14.5 mm
04:40 PM 66.2°F19.0°C 59.7°F15.4°C 80% 7.2 mph W11.6 kmh W 13.2 mph21.2 kmh 29.74 in1007.1 mb 0.00 in0.0 mm 0.00 in0.0 mm 0.57 in14.5 mm
04:45 PM 65.7°F18.7°C 59.4°F15.2°C 80% 6.5 mph WSW10.5 kmh WSW 11.6 mph18.7 kmh 29.74 in1007.1 mb 0.00 in0.0 mm 0.00 in0.0 mm 0.57 in14.5 mm
04:50 PM 65.8°F18.8°C 59.5°F15.3°C 80% 8.1 mph WSW13.0 kmh WSW 13.6 mph21.9 kmh 29.74 in1007.1 mb 0.00 in0.0 mm 0.00 in0.0 mm 0.57 in14.5 mm
04:55 PM 65.4°F18.6°C 59.3°F15.2°C 81% 7.2 mph W11.6 kmh W 12.3 mph19.8 kmh 29.74 in1007.1 mb 0.00 in0.0 mm 0.00 in0.0 mm 0.57 in14.5 mm
05:00 PM 65.6°F18.7°C 59.5°F15.3°C 81% 6.8 mph W10.9 kmh W 11.4 mph18.3 kmh 29.74 in1007.1 mb 0.00 in0.0 mm 0.00 in0.0 mm 0.57 in14.5 mm
05:05 PM 65.9°F18.8°C 59.8°F15.4°C 81% 5.7 mph WSW9.2 kmh WSW 9.4 mph15.1 kmh 29.74 in1007.1 mb 0.00 in0.0 mm 0.00 in0.0 mm 0.57 in14.5 mm
05:10 PM 66.0°F18.9°C 59.7°F15.4°C 80% 6.6 mph WNW10.6 kmh WNW 10.5 mph16.9 kmh 29.74 in1007.1 mb 0.00 in0.0 mm 0.00 in0.0 mm 0.57 in14.5 mm
05:15 PM 65.7°F18.7°C 59.3°F15.2°C 80% 8.1 mph WSW13.0 kmh WSW 15.0 mph24.1 kmh 29.74 in1007.1 mb 0.00 in0.0 mm 0.00 in0.0 mm 0.57 in14.5 mm
05:20 PM 64.9°F18.3°C 58.8°F14.9°C 81% 5.8 mph WSW9.3 kmh WSW 9.6 mph15.4 kmh 29.74 in1007.1 mb 0.00 in0.0 mm 0.00 in0.0 mm 0.57 in14.5 mm
05:25 PM 64.2°F17.9°C 58.8°F14.9°C 82% 6.5 mph W10.5 kmh W 13.6 mph21.9 kmh 29.74 in1007.1 mb 0.00 in0.0 mm 0.00 in0.0 mm 0.57 in14.5 mm
05:30 PM 63.7°F17.6°C 58.6°F14.8°C 84% 7.5 mph WSW12.1 kmh WSW 10.7 mph17.2 kmh 29.74 in1007.1 mb 0.00 in0.0 mm 0.00 in0.0 mm 0.57 in14.5 mm
05:35 PM 63.8°F17.7°C 59.4°F15.2°C 86% 5.1 mph W8.2 kmh W 8.1 mph13.0 kmh 29.76 in1007.8 mb 0.00 in0.0 mm 0.00 in0.0 mm 0.57 in14.5 mm
05:40 PM 64.3°F17.9°C 59.9°F15.5°C 86% 5.8 mph WSW9.3 kmh WSW 12.5 mph20.1 kmh 29.77 in1008.1 mb 0.00 in0.0 mm 0.00 in0.0 mm 0.57 in14.5 mm
05:45 PM 64.6°F18.1°C 59.6°F15.3°C 84% 5.7 mph WSW9.2 kmh WSW 10.7 mph17.2 kmh 29.77 in1008.1 mb 0.00 in0.0 mm 0.00 in0.0 mm 0.57 in14.5 mm
05:50 PM 64.7°F18.2°C 59.8°F15.4°C 84% 6.0 mph WSW9.7 kmh WSW 10.3 mph16.6 kmh 29.77 in1008.1 mb 0.00 in0.0 mm 0.00 in0.0 mm 0.57 in14.5 mm
05:55 PM 64.7°F18.2°C 59.4°F15.2°C 83% 5.5 mph WSW8.9 kmh WSW 10.3 mph16.6 kmh 29.77 in1008.1 mb 0.00 in0.0 mm 0.00 in0.0 mm 0.57 in14.5 mm
06:00 PM 64.5°F18.1°C 58.8°F14.9°C 82% 7.7 mph WSW12.4 kmh WSW 12.3 mph19.8 kmh 29.77 in1008.1 mb 0.00 in0.0 mm 0.00 in0.0 mm 0.57 in14.5 mm
06:05 PM 64.3°F17.9°C 58.3°F14.6°C 81% 5.8 mph WSW9.3 kmh WSW 12.5 mph20.1 kmh 29.77 in1008.1 mb 0.00 in0.0 mm 0.00 in0.0 mm 0.57 in14.5 mm
06:10 PM 64.1°F17.8°C 58.0°F14.4°C 81% 5.6 mph WSW9.0 kmh WSW 10.7 mph17.2 kmh 29.77 in1008.1 mb 0.00 in0.0 mm 0.00 in0.0 mm 0.57 in14.5 mm
06:15 PM 63.1°F17.3°C 57.0°F13.9°C 80% 5.3 mph W8.5 kmh W 9.8 mph15.8 kmh 29.77 in1008.1 mb 0.00 in0.0 mm 0.00 in0.0 mm 0.57 in14.5 mm
06:20 PM 62.6°F17.0°C 57.0°F13.9°C 82% 4.7 mph WSW7.6 kmh WSW 7.8 mph12.6 kmh 29.75 in1007.5 mb 0.00 in0.0 mm 0.00 in0.0 mm 0.57 in14.5 mm
06:25 PM 62.1°F16.7°C 57.1°F13.9°C 84% 4.9 mph WSW7.9 kmh WSW 8.1 mph13.0 kmh 29.74 in1007.1 mb 0.00 in0.0 mm 0.00 in0.0 mm 0.57 in14.5 mm
06:30 PM 61.7°F16.5°C 57.2°F14.0°C 85% 3.8 mph SW6.1 kmh SW 6.9 mph11.1 kmh 29.74 in1007.1 mb 0.00 in0.0 mm 0.00 in0.0 mm 0.57 in14.5 mm
06:35 PM 61.6°F16.4°C 57.6°F14.2°C 87% 3.5 mph WSW5.6 kmh WSW 5.1 mph8.2 kmh 29.76 in1007.8 mb 0.00 in0.0 mm 0.00 in0.0 mm 0.57 in14.5 mm
06:40 PM 61.6°F16.4°C 57.6°F14.2°C 87% 2.9 mph WSW4.7 kmh WSW 4.5 mph7.2 kmh 29.77 in1008.1 mb 0.00 in0.0 mm 0.00 in0.0 mm 0.57 in14.5 mm
06:45 PM 61.2°F16.2°C 57.9°F14.4°C 89% 4.1 mph WSW6.6 kmh WSW 7.6 mph12.2 kmh 29.77 in1008.1 mb 0.00 in0.0 mm 0.00 in0.0 mm 0.57 in14.5 mm
06:50 PM 61.0°F16.1°C 58.1°F14.5°C 90% 5.0 mph SW8.0 kmh SW 8.5 mph13.7 kmh 29.77 in1008.1 mb 0.00 in0.0 mm 0.00 in0.0 mm 0.57 in14.5 mm
06:55 PM 60.9°F16.1°C 58.3°F14.6°C 91% 3.8 mph SW6.1 kmh SW 7.8 mph12.6 kmh 29.77 in1008.1 mb 0.00 in0.0 mm 0.00 in0.0 mm 0.57 in14.5 mm
07:00 PM 60.8°F16.0°C 58.2°F14.6°C 91% 5.1 mph SW8.2 kmh SW 8.5 mph13.7 kmh 29.77 in1008.1 mb 0.00 in0.0 mm 0.00 in0.0 mm 0.57 in14.5 mm
07:05 PM 60.7°F15.9°C 58.1°F14.5°C 91% 5.8 mph WSW9.3 kmh WSW 10.7 mph17.2 kmh 29.77 in1008.1 mb 0.00 in0.0 mm 0.00 in0.0 mm 0.57 in14.5 mm
07:10 PM 60.3°F15.7°C 57.7°F14.3°C 91% 6.4 mph WSW10.3 kmh WSW 11.4 mph18.3 kmh 29.77 in1008.1 mb 0.00 in0.0 mm 0.00 in0.0 mm 0.57 in14.5 mm
07:15 PM 60.2°F15.7°C 57.5°F14.2°C 91% 4.6 mph WSW7.4 kmh WSW 8.3 mph13.4 kmh 29.77 in1008.1 mb 0.00 in0.0 mm 0.00 in0.0 mm 0.57 in14.5 mm
07:20 PM 59.8°F15.4°C 57.2°F14.0°C 91% 3.9 mph WSW6.3 kmh WSW 6.9 mph11.1 kmh 29.77 in1008.1 mb 0.00 in0.0 mm 0.00 in0.0 mm 0.57 in14.5 mm
07:25 PM 59.6°F15.3°C 57.2°F14.0°C 92% 5.1 mph WSW8.2 kmh WSW 10.5 mph16.9 kmh 29.77 in1008.1 mb 0.00 in0.0 mm 0.00 in0.0 mm 0.57 in14.5 mm
07:30 PM 59.3°F15.2°C 57.0°F13.9°C 92% 3.9 mph WSW6.3 kmh WSW 5.8 mph9.3 kmh 29.77 in1008.1 mb 0.00 in0.0 mm 0.00 in0.0 mm 0.57 in14.5 mm
07:35 PM 59.1°F15.1°C 57.3°F14.1°C 94% 4.8 mph W7.7 kmh W 5.8 mph9.3 kmh 29.77 in1008.1 mb 0.00 in0.0 mm 0.00 in0.0 mm 0.57 in14.5 mm
07:40 PM 59.1°F15.1°C 57.4°F14.1°C 94% 4.4 mph WSW7.1 kmh WSW 10.1 mph16.3 kmh 29.77 in1008.1 mb 0.00 in0.0 mm 0.00 in0.0 mm 0.57 in14.5 mm
07:45 PM 59.2°F15.1°C 57.5°F14.2°C 94% 4.2 mph WSW6.8 kmh WSW 7.6 mph12.2 kmh 29.77 in1008.1 mb 0.00 in0.0 mm 0.00 in0.0 mm 0.57 in14.5 mm
07:50 PM 59.2°F15.1°C 57.6°F14.2°C 94% 3.8 mph SW6.1 kmh SW 7.4 mph11.9 kmh 29.77 in1008.1 mb 0.00 in0.0 mm 0.00 in0.0 mm 0.57 in14.5 mm
07:55 PM 59.4°F15.2°C 57.9°F14.4°C 95% 5.3 mph WSW8.5 kmh WSW 10.7 mph17.2 kmh 29.77 in1008.1 mb 0.00 in0.0 mm 0.00 in0.0 mm 0.57 in14.5 mm
08:00 PM 59.5°F15.3°C 58.0°F14.4°C 95% 4.5 mph WNW7.2 kmh WNW 5.6 mph9.0 kmh 29.77 in1008.1 mb 0.00 in0.0 mm 0.00 in0.0 mm 0.57 in14.5 mm
08:05 PM 59.5°F15.3°C 57.9°F14.4°C 94% 5.1 mph SW8.2 kmh SW 12.3 mph19.8 kmh 29.77 in1008.1 mb 0.00 in0.0 mm 0.00 in0.0 mm 0.57 in14.5 mm
08:10 PM 59.5°F15.3°C 57.1°F13.9°C 92% 4.9 mph SW7.9 kmh SW 9.2 mph14.8 kmh 29.77 in1008.1 mb 0.00 in0.0 mm 0.00 in0.0 mm 0.57 in14.5 mm
08:15 PM 59.5°F15.3°C 56.7°F13.7°C 90% 5.2 mph W8.4 kmh W 8.3 mph13.4 kmh 29.77 in1008.1 mb 0.00 in0.0 mm 0.00 in0.0 mm 0.57 in14.5 mm
08:20 PM 59.5°F15.3°C 56.8°F13.8°C 91% 5.4 mph WSW8.7 kmh WSW 9.4 mph15.1 kmh 29.77 in1008.1 mb 0.00 in0.0 mm 0.00 in0.0 mm 0.57 in14.5 mm
08:25 PM 59.5°F15.3°C 56.9°F13.8°C 91% 4.2 mph WSW6.8 kmh WSW 10.1 mph16.3 kmh 29.77 in1008.1 mb 0.00 in0.0 mm 0.00 in0.0 mm 0.57 in14.5 mm
08:30 PM 59.6°F15.3°C 57.0°F13.9°C 91% 4.7 mph WSW7.6 kmh WSW 8.9 mph14.3 kmh 29.77 in1008.1 mb 0.00 in0.0 mm 0.00 in0.0 mm 0.57 in14.5 mm
08:35 PM 59.7°F15.4°C 57.2°F14.0°C 91% 5.2 mph WSW8.4 kmh WSW 8.5 mph13.7 kmh 29.77 in1008.1 mb 0.00 in0.0 mm 0.00 in0.0 mm 0.57 in14.5 mm
08:40 PM 59.7°F15.4°C 57.4°F14.1°C 92% 4.4 mph WSW7.1 kmh WSW 9.4 mph15.1 kmh 29.77 in1008.1 mb 0.00 in0.0 mm 0.00 in0.0 mm 0.57 in14.5 mm
08:45 PM 59.7°F15.4°C 57.5°F14.2°C 92% 5.1 mph W8.2 kmh W 8.3 mph13.4 kmh 29.77 in1008.1 mb 0.00 in0.0 mm 0.00 in0.0 mm 0.57 in14.5 mm
08:50 PM 59.7°F15.4°C 58.0°F14.4°C 94% 4.9 mph W7.9 kmh W 8.3 mph13.4 kmh 29.77 in1008.1 mb 0.00 in0.0 mm 0.00 in0.0 mm 0.57 in14.5 mm
08:55 PM 59.7°F15.4°C 58.0°F14.4°C 94% 4.9 mph SW7.9 kmh SW 7.8 mph12.6 kmh 29.77 in1008.1 mb 0.00 in0.0 mm 0.00 in0.0 mm 0.57 in14.5 mm
09:00 PM 59.6°F15.3°C 57.9°F14.4°C 94% 5.7 mph WSW9.2 kmh WSW 10.1 mph16.3 kmh 29.77 in1008.1 mb 0.00 in0.0 mm 0.00 in0.0 mm 0.57 in14.5 mm
09:05 PM 59.5°F15.3°C 57.8°F14.3°C 94% 6.0 mph WSW9.7 kmh WSW 12.3 mph19.8 kmh 29.75 in1007.5 mb 0.00 in0.0 mm 0.00 in0.0 mm 0.57 in14.5 mm
09:10 PM 59.5°F15.3°C 57.4°F14.1°C 93% 5.9 mph WSW9.5 kmh WSW 10.3 mph16.6 kmh 29.74 in1007.1 mb 0.00 in0.0 mm 0.00 in0.0 mm 0.57 in14.5 mm
09:15 PM 59.4°F15.2°C 57.1°F13.9°C 92% 5.0 mph WNW8.0 kmh WNW 10.1 mph16.3 kmh 29.74 in1007.1 mb 0.00 in0.0 mm 0.00 in0.0 mm 0.57 in14.5 mm
09:20 PM 59.3°F15.2°C 56.9°F13.8°C 92% 5.0 mph W8.0 kmh W 11.4 mph18.3 kmh 29.74 in1007.1 mb 0.00 in0.0 mm 0.00 in0.0 mm 0.57 in14.5 mm
09:25 PM 59.1°F15.1°C 56.8°F13.8°C 92% 5.2 mph WSW8.4 kmh WSW 12.3 mph19.8 kmh 29.74 in1007.1 mb 0.00 in0.0 mm 0.00 in0.0 mm 0.57 in14.5 mm
09:30 PM 59.0°F15.0°C 57.1°F13.9°C 94% 5.7 mph SW9.2 kmh SW 11.4 mph18.3 kmh 29.74 in1007.1 mb 0.00 in0.0 mm 0.00 in0.0 mm 0.57 in14.5 mm
09:35 PM 59.0°F15.0°C 57.3°F14.1°C 94% 5.8 mph W9.3 kmh W 9.2 mph14.8 kmh 29.74 in1007.1 mb 0.00 in0.0 mm 0.00 in0.0 mm 0.57 in14.5 mm
09:40 PM 59.0°F15.0°C 57.5°F14.2°C 95% 5.4 mph WSW8.7 kmh WSW 8.5 mph13.7 kmh 29.74 in1007.1 mb 0.00 in0.0 mm 0.00 in0.0 mm 0.57 in14.5 mm
09:45 PM 58.9°F14.9°C 57.6°F14.2°C 96% 4.0 mph WSW6.4 kmh WSW 7.4 mph11.9 kmh 29.74 in1007.1 mb 0.00 in0.0 mm 0.00 in0.0 mm 0.57 in14.5 mm
09:50 PM 58.8°F14.9°C 57.9°F14.4°C 97% 4.4 mph WSW7.1 kmh WSW 9.4 mph15.1 kmh 29.76 in1007.8 mb 0.00 in0.0 mm 0.00 in0.0 mm 0.57 in14.5 mm
09:55 PM 58.8°F14.9°C 58.0°F14.4°C 97% 3.9 mph WSW6.3 kmh WSW 6.9 mph11.1 kmh 29.77 in1008.1 mb 0.00 in0.0 mm 0.00 in0.0 mm 0.57 in14.5 mm
10:00 PM 58.8°F14.9°C 58.3°F14.6°C 98% 5.0 mph WSW8.0 kmh WSW 8.5 mph13.7 kmh 29.77 in1008.1 mb 0.00 in0.0 mm 0.00 in0.0 mm 0.57 in14.5 mm
10:05 PM 58.8°F14.9°C 58.3°F14.6°C 98% 4.0 mph WSW6.4 kmh WSW 10.1 mph16.3 kmh 29.77 in1008.1 mb 0.00 in0.0 mm 0.00 in0.0 mm 0.57 in14.5 mm
10:10 PM 58.8°F14.9°C 58.2°F14.6°C 98% 5.2 mph SW8.4 kmh SW 7.8 mph12.6 kmh 29.77 in1008.1 mb 0.00 in0.0 mm 0.00 in0.0 mm 0.57 in14.5 mm
10:15 PM 58.8°F14.9°C 57.8°F14.3°C 96% 5.1 mph WSW8.2 kmh WSW 8.1 mph13.0 kmh 29.77 in1008.1 mb 0.00 in0.0 mm 0.00 in0.0 mm 0.57 in14.5 mm
10:20 PM 58.9°F14.9°C 57.4°F14.1°C 95% 5.5 mph W8.9 kmh W 9.4 mph15.1 kmh 29.77 in1008.1 mb 0.00 in0.0 mm 0.00 in0.0 mm 0.57 in14.5 mm
10:25 PM 59.0°F15.0°C 56.8°F13.8°C 92% 6.4 mph WSW10.3 kmh WSW 13.6 mph21.9 kmh 29.77 in1008.1 mb 0.00 in0.0 mm 0.00 in0.0 mm 0.57 in14.5 mm
10:30 PM 59.0°F15.0°C 56.7°F13.7°C 92% 6.4 mph WSW10.3 kmh WSW 10.5 mph16.9 kmh 29.77 in1008.1 mb 0.00 in0.0 mm 0.00 in0.0 mm 0.57 in14.5 mm
10:35 PM 58.9°F14.9°C 57.1°F13.9°C 94% 4.6 mph WNW7.4 kmh WNW 6.9 mph11.1 kmh 29.79 in1008.8 mb 0.00 in0.0 mm 0.00 in0.0 mm 0.57 in14.5 mm
10:40 PM 58.6°F14.8°C 56.9°F13.8°C 94% 5.4 mph WSW8.7 kmh WSW 11.2 mph18.0 kmh 29.80 in1009.1 mb 0.00 in0.0 mm 0.00 in0.0 mm 0.57 in14.5 mm
10:45 PM 58.5°F14.7°C 56.7°F13.7°C 94% 5.7 mph W9.2 kmh W 11.6 mph18.7 kmh 29.80 in1009.1 mb 0.00 in0.0 mm 0.00 in0.0 mm 0.57 in14.5 mm
10:50 PM 58.5°F14.7°C 56.7°F13.7°C 94% 4.1 mph WSW6.6 kmh WSW 6.5 mph10.5 kmh 29.78 in1008.5 mb 0.00 in0.0 mm 0.00 in0.0 mm 0.57 in14.5 mm
10:55 PM 58.3°F14.6°C 56.6°F13.7°C 94% 3.4 mph WSW5.5 kmh WSW 5.8 mph9.3 kmh 29.77 in1008.1 mb 0.00 in0.0 mm 0.00 in0.0 mm 0.57 in14.5 mm
11:00 PM 58.3°F14.6°C 56.6°F13.7°C 94% 4.0 mph W6.4 kmh W 9.2 mph14.8 kmh 29.77 in1008.1 mb 0.00 in0.0 mm 0.00 in0.0 mm 0.52 in13.2 mm
11:05 PM 58.3°F14.6°C 56.7°F13.7°C 94% 4.3 mph WSW6.9 kmh WSW 8.5 mph13.7 kmh 29.77 in1008.1 mb 0.00 in0.0 mm 0.00 in0.0 mm 0.52 in13.2 mm
11:10 PM 58.5°F14.7°C 57.0°F13.9°C 95% 4.1 mph WSW6.6 kmh WSW 6.7 mph10.8 kmh 29.77 in1008.1 mb 0.00 in0.0 mm 0.00 in0.0 mm 0.52 in13.2 mm
11:15 PM 58.4°F14.7°C 57.0°F13.9°C 95% 2.8 mph WSW4.5 kmh WSW 6.7 mph10.8 kmh 29.77 in1008.1 mb 0.00 in0.0 mm 0.00 in0.0 mm 0.52 in13.2 mm
11:20 PM 58.3°F14.6°C 56.9°F13.8°C 95% 3.5 mph WSW5.6 kmh WSW 6.0 mph9.7 kmh 29.77 in1008.1 mb 0.00 in0.0 mm 0.00 in0.0 mm 0.52 in13.2 mm
11:25 PM 58.3°F14.6°C 57.1°F13.9°C 96% 3.7 mph SW6.0 kmh SW 8.3 mph13.4 kmh 29.77 in1008.1 mb 0.00 in0.0 mm 0.00 in0.0 mm 0.52 in13.2 mm
11:30 PM 58.3°F14.6°C 57.4°F14.1°C 97% 4.2 mph WSW6.8 kmh WSW 6.9 mph11.1 kmh 29.77 in1008.1 mb 0.00 in0.0 mm 0.00 in0.0 mm 0.52 in13.2 mm
11:35 PM 58.4°F14.7°C 57.6°F14.2°C 97% 4.1 mph WSW6.6 kmh WSW 6.5 mph10.5 kmh 29.77 in1008.1 mb 0.00 in0.0 mm 0.00 in0.0 mm 0.52 in13.2 mm
11:40 PM 58.6°F14.8°C 57.8°F14.3°C 97% 4.0 mph SW6.4 kmh SW 6.7 mph10.8 kmh 29.77 in1008.1 mb 0.00 in0.0 mm 0.00 in0.0 mm 0.52 in13.2 mm
11:45 PM 58.6°F14.8°C 58.1°F14.5°C 98% 3.7 mph WSW6.0 kmh WSW 8.5 mph13.7 kmh 29.77 in1008.1 mb 0.00 in0.0 mm 0.00 in0.0 mm 0.52 in13.2 mm
11:50 PM 58.8°F14.9°C 58.2°F14.6°C 98% 5.0 mph WSW8.0 kmh WSW 9.2 mph14.8 kmh 29.77 in1008.1 mb 0.00 in0.0 mm 0.00 in0.0 mm 0.52 in13.2 mm
11:55 PM 59.0°F15.0°C 58.1°F14.5°C 97% 4.6 mph SW7.4 kmh SW 8.1 mph13.0 kmh 29.77 in1008.1 mb 0.00 in0.0 mm 0.00 in0.0 mm 0.52 in13.2 mm